Weather at Quebec / Hôpital de l'enfant-Jésus Heliport [CLOSED]

Public forecast

Using degrees Celsius for public forecast. Weather courtesy of forecast.io.

Closest aviation weather report (METAR) to Quebec / Hôpital de l'enfant-Jésus Heliport

Closest report is Quebec Jean Lesage International Airport, 7.5 nm (13.8 km) WSW.

2024/07/22 00:00 (retrieved 45 minutes ago)

CYQB 220000Z 28004KT 30SM FEW060 FEW082 FEW250 19/12 A2998 RMK CU1AC1CI1 CU TR SLP155 DENSITY ALT 700FT

Closest aviation forecast (TAF) to Quebec / Hôpital de l'enfant-Jésus Heliport

Closest forecast is Trois-Rivières Airport, 66.7 nm (123.5 km) WSW.

2024/07/21 20:00 (retrieved 5 hours ago)

TAF CYRQ 211950Z 2120/2208 29008KT P6SM FEW060 BECMG 2120/2122 25007KT RMK FCST BASED ON AUTO OBS NXT FCST BY 220200Z